Time;durP1;ratioP1;P1;durP2;ratioP2;P2;SDS_P1;SDS_P2;PMS_P1;PMS_P2;Temp;Humidity;BMP_temperature;BMP_pressure;BME280_temperature;BME280_humidity;BME280_pressure;Samples;Min_cycle;Max_cycle;Signal;HPM_P1;HPM_P2
2021/03/05 00:01:16;;;;;;;25.33;11.43;;;5.50;99.90;;;;;;5013394;28;20466;-59
2021/03/05 00:03:42;;;;;;;22.52;11.00;;;5.50;99.90;;;;;;5013335;28;20045;-60
2021/03/05 00:06:09;;;;;;;26.65;12.63;;;5.50;99.90;;;;;;5013180;28;20034;-60
2021/03/05 00:08:35;;;;;;;23.63;11.35;;;5.40;99.90;;;;;;5013243;28;20038;-60
2021/03/05 00:11:01;;;;;;;25.75;11.63;;;5.40;99.90;;;;;;5012893;28;20517;-60
2021/03/05 00:13:27;;;;;;;24.35;11.02;;;5.40;99.90;;;;;;5013006;28;20026;-60
2021/03/05 00:15:52;;;;;;;25.65;10.88;;;5.40;99.90;;;;;;4995656;28;20030;-60
2021/03/05 00:18:19;;;;;;;22.13;11.27;;;5.40;99.90;;;;;;5013097;28;20348;-59
2021/03/05 00:20:49;;;;;;;21.75;10.68;;;5.40;99.90;;;;;;4995677;28;20041;-60
2021/03/05 00:23:16;;;;;;;23.33;9.75;;;5.40;99.90;;;;;;5013139;28;20034;-60
2021/03/05 00:25:42;;;;;;;24.13;10.32;;;5.40;99.90;;;;;;4995334;28;20175;-60
2021/03/05 00:28:08;;;;;;;21.60;9.68;;;5.30;99.90;;;;;;4978580;28;20046;-60
2021/03/05 00:30:35;;;;;;;22.25;10.65;;;5.30;99.90;;;;;;5012790;28;20040;-60
2021/03/05 00:33:05;;;;;;;24.80;11.45;;;5.30;99.90;;;;;;5012755;28;20057;-60
2021/03/05 00:35:31;;;;;;;21.05;10.30;;;5.30;99.90;;;;;;5013042;28;20124;-61
2021/03/05 00:37:57;;;;;;;18.00;9.25;;;5.30;99.90;;;;;;5012616;28;20044;-61
2021/03/05 00:40:24;;;;;;;21.42;10.88;;;5.30;99.90;;;;;;5012784;28;20479;-61
2021/03/05 00:42:52;;;;;;;25.42;11.80;;;5.30;99.90;;;;;;5012804;28;20084;-61
2021/03/05 00:45:21;;;;;;;22.92;11.10;;;5.20;99.90;;;;;;5012486;28;20041;-61
2021/03/05 00:47:47;;;;;;;20.88;11.00;;;5.10;99.90;;;;;;5012733;28;20045;-61
2021/03/05 00:50:16;;;;;;;18.33;10.32;;;5.10;99.90;;;;;;5012586;28;20109;-61
2021/03/05 00:52:42;;;;;;;20.13;9.77;;;5.20;99.90;;;;;;5012697;28;20122;-61
2021/03/05 00:55:10;;;;;;;18.05;9.23;;;5.20;99.90;;;;;;5012733;28;20121;-59
2021/03/05 00:57:36;;;;;;;16.73;9.20;;;5.30;99.90;;;;;;4995020;28;20042;-60
2021/03/05 01:00:10;;;;;;;17.33;8.75;;;5.20;99.90;;;;;;5012438;28;20058;-59
2021/03/05 01:02:36;;;;;;;17.20;9.43;;;5.20;99.90;;;;;;5012399;28;20494;-60
2021/03/05 01:05:05;;;;;;;18.42;9.07;;;5.20;99.90;;;;;;5012315;28;20045;-60
2021/03/05 01:07:31;;;;;;;15.00;8.13;;;5.20;99.90;;;;;;4997687;28;20478;-60
2021/03/05 01:09:56;;;;;;;14.55;8.50;;;5.20;99.90;;;;;;5019002;28;20044;-61
2021/03/05 01:12:22;;;;;;;16.40;9.13;;;5.20;99.90;;;;;;5018908;28;20104;-60
2021/03/05 01:14:48;;;;;;;12.25;6.55;;;5.20;99.90;;;;;;5018747;28;20052;-61
2021/03/05 01:17:14;;;;;;;12.35;6.68;;;5.10;99.90;;;;;;5018912;28;20030;-60
2021/03/05 01:19:41;;;;;;;14.45;7.68;;;5.10;99.90;;;;;;5019047;28;20053;-60
2021/03/05 01:22:07;;;;;;;12.15;6.00;;;5.00;99.90;;;;;;5018717;28;20069;-60
2021/03/05 01:24:33;;;;;;;12.80;7.05;;;5.10;99.90;;;;;;5001509;28;20033;-60
2021/03/05 01:26:59;;;;;;;12.95;6.63;;;5.00;99.90;;;;;;5018392;28;20046;-59
2021/03/05 01:29:25;;;;;;;12.90;7.30;;;5.00;99.90;;;;;;5000952;28;20372;-59
2021/03/05 01:31:50;;;;;;;13.60;6.97;;;5.00;99.90;;;;;;5001186;28;20036;-60
2021/03/05 01:34:16;;;;;;;11.48;6.05;;;5.10;99.90;;;;;;5018794;28;20026;-60
2021/03/05 01:36:42;;;;;;;12.80;6.75;;;5.10;99.90;;;;;;5001258;28;20038;-61
2021/03/05 01:39:08;;;;;;;13.63;6.72;;;5.10;99.90;;;;;;5018233;28;20056;-60
2021/03/05 01:41:34;;;;;;;12.95;7.32;;;5.10;99.90;;;;;;5018892;28;20088;-61
2021/03/05 01:44:01;;;;;;;11.13;7.18;;;5.10;99.90;;;;;;5018563;28;20057;-61
2021/03/05 01:46:28;;;;;;;15.02;7.70;;;5.00;99.90;;;;;;5018297;28;20034;-60
2021/03/05 01:48:55;;;;;;;13.50;7.57;;;5.10;99.90;;;;;;5018451;28;20038;-59
2021/03/05 01:51:24;;;;;;;13.25;7.45;;;5.00;99.90;;;;;;5018496;28;20037;-59
2021/03/05 01:53:50;;;;;;;11.55;6.30;;;5.10;99.90;;;;;;5018349;28;20030;-60
2021/03/05 01:56:39;;;;;;;14.32;6.88;;;5.10;99.90;;;;;;5018706;28;20360;-60
2021/03/05 01:59:27;;;;;;;10.63;5.82;;;5.10;99.90;;;;;;5018672;28;20029;-60
2021/03/05 02:01:53;;;;;;;12.52;7.63;;;5.10;99.90;;;;;;5003774;28;20041;-61
2021/03/05 02:04:18;;;;;;;14.02;7.97;;;5.10;99.90;;;;;;5018300;28;20410;-61
2021/03/05 02:06:45;;;;;;;12.55;7.35;;;5.10;99.90;;;;;;5018491;28;20040;-61
2021/03/05 02:09:11;;;;;;;13.68;7.25;;;5.00;99.90;;;;;;5000968;28;20026;-60
2021/03/05 02:11:37;;;;;;;13.05;7.25;;;5.00;99.90;;;;;;5018505;28;20026;-60
2021/03/05 02:14:07;;;;;;;13.45;6.90;;;5.10;99.90;;;;;;5000794;28;20434;-60
2021/03/05 02:17:03;;;;;;;15.45;7.82;;;5.10;99.90;;;;;;5001008;28;20033;-60
2021/03/05 02:19:54;;;;;;;17.63;7.55;;;5.10;99.90;;;;;;5015711;28;20368;-61
2021/03/05 02:23:11;;;;;;;14.93;7.95;;;5.10;99.90;;;;;;4999277;28;20379;-61
2021/03/05 02:26:23;;;;;;;14.30;7.50;;;5.10;99.90;;;;;;5015133;28;20042;-61
2021/03/05 02:29:05;;;;;;;11.55;6.72;;;5.00;99.90;;;;;;5015167;28;20030;-61
2021/03/05 02:31:47;;;;;;;13.45;7.13;;;5.00;99.90;;;;;;5014946;28;20431;-60
2021/03/05 02:34:37;;;;;;;13.38;7.38;;;5.10;99.90;;;;;;4997992;28;20053;-60
2021/03/05 02:37:11;;;;;;;13.82;7.75;;;5.00;99.90;;;;;;4998018;28;20357;-61
2021/03/05 02:40:07;;;;;;;13.90;7.45;;;5.00;99.90;;;;;;5014907;28;20038;-60
2021/03/05 02:42:56;;;;;;;14.43;7.20;;;5.00;99.90;;;;;;5014558;28;20121;-60
2021/03/05 02:45:28;;;;;;;13.93;7.43;;;5.10;99.90;;;;;;4997642;28;20030;-61
2021/03/05 02:48:20;;;;;;;16.25;7.95;;;5.00;99.90;;;;;;4998195;28;20077;-61
2021/03/05 02:50:52;;;;;;;13.30;7.13;;;5.00;99.90;;;;;;5015047;28;20041;-60
2021/03/05 02:53:20;;;;;;;13.57;7.63;;;5.10;99.90;;;;;;4997383;28;20072;-61
2021/03/05 02:55:52;;;;;;;12.55;7.20;;;5.10;99.90;;;;;;4997463;28;20108;-61
2021/03/05 02:58:20;;;;;;;13.40;7.15;;;5.10;99.90;;;;;;4997524;28;20026;-60
2021/03/05 03:00:48;;;;;;;13.50;7.50;;;5.00;99.90;;;;;;5014855;28;20060;-60
2021/03/05 03:03:14;;;;;;;14.00;8.00;;;5.10;99.90;;;;;;5014534;28;20030;-61
2021/03/05 03:05:41;;;;;;;15.73;7.95;;;5.00;99.90;;;;;;4996851;28;20092;-61
2021/03/05 03:08:09;;;;;;;13.55;7.40;;;5.10;99.90;;;;;;4997219;28;20112;-60
2021/03/05 03:10:36;;;;;;;14.23;7.95;;;5.00;99.90;;;;;;4997049;28;20113;-60
2021/03/05 03:13:04;;;;;;;17.63;9.02;;;5.10;99.90;;;;;;5014589;28;20037;-60
2021/03/05 03:15:32;;;;;;;19.38;10.02;;;5.10;99.90;;;;;;4996673;28;20036;-59
2021/03/05 03:18:02;;;;;;;15.27;8.02;;;5.00;99.90;;;;;;4996805;28;20063;-60
2021/03/05 03:20:28;;;;;;;17.58;7.97;;;5.00;99.90;;;;;;4996864;28;20243;-60
2021/03/05 03:22:54;;;;;;;17.52;8.13;;;5.10;99.90;;;;;;4996794;28;20550;-60
2021/03/05 03:25:25;;;;;;;13.60;7.20;;;5.00;99.90;;;;;;5014013;28;20044;-60
2021/03/05 03:27:51;;;;;;;17.08;8.05;;;5.00;99.90;;;;;;4996290;28;20049;-60
2021/03/05 03:30:19;;;;;;;15.88;8.30;;;5.00;99.90;;;;;;5013151;28;20046;-60
2021/03/05 03:32:46;;;;;;;16.10;7.57;;;4.90;99.90;;;;;;5013892;28;20021;-60
2021/03/05 03:35:15;;;;;;;16.35;7.95;;;5.00;99.90;;;;;;4996612;28;20034;-61
2021/03/05 03:37:41;;;;;;;14.88;7.82;;;5.00;99.90;;;;;;4996585;28;20094;-60
2021/03/05 03:40:17;;;;;;;15.60;7.88;;;5.00;99.90;;;;;;5013917;28;20026;-60
2021/03/05 03:42:45;;;;;;;16.33;8.18;;;5.00;99.90;;;;;;5013953;28;20180;-61
2021/03/05 03:45:14;;;;;;;14.23;7.97;;;5.00;99.90;;;;;;4996004;28;20030;-60
2021/03/05 03:47:41;;;;;;;17.00;8.90;;;5.10;99.90;;;;;;5013850;28;20034;-60
2021/03/05 03:50:26;;;;;;;16.63;8.15;;;5.10;99.90;;;;;;4995932;28;20097;-60
2021/03/05 03:52:57;;;;;;;15.38;7.65;;;5.10;99.90;;;;;;4998358;28;20030;-61
2021/03/05 03:55:23;;;;;;;16.58;8.02;;;5.10;99.90;;;;;;5013289;28;20034;-61
2021/03/05 03:57:53;;;;;;;15.68;7.85;;;5.00;99.90;;;;;;5013644;28;20037;-61
2021/03/05 04:00:20;;;;;;;16.60;8.32;;;4.90;99.90;;;;;;5013359;28;20053;-60
2021/03/05 04:02:52;;;;;;;15.23;7.90;;;4.90;99.90;;;;;;4995764;28;20040;-60
2021/03/05 04:05:27;;;;;;;15.75;8.02;;;5.00;99.90;;;;;;5013013;28;20458;-61
2021/03/05 04:07:56;;;;;;;15.25;8.07;;;5.10;99.90;;;;;;5013144;28;20376;-61
2021/03/05 04:10:23;;;;;;;15.88;8.43;;;5.00;99.90;;;;;;5013204;28;20029;-59
2021/03/05 04:12:50;;;;;;;19.10;8.45;;;5.00;99.90;;;;;;5013357;28;20479;-59
2021/03/05 04:15:17;;;;;;;14.40;7.80;;;5.10;99.90;;;;;;4995565;28;20041;-61
2021/03/05 04:17:45;;;;;;;16.90;8.18;;;5.10;99.90;;;;;;5013210;28;20113;-61
2021/03/05 04:20:14;;;;;;;16.73;8.68;;;5.10;99.90;;;;;;5013082;28;20044;-59
2021/03/05 04:22:43;;;;;;;17.23;8.10;;;5.10;99.90;;;;;;5013404;28;20037;-60
2021/03/05 04:25:12;;;;;;;16.67;7.82;;;5.10;99.90;;;;;;4995429;28;20056;-61
2021/03/05 04:27:39;;;;;;;16.30;8.18;;;5.10;99.90;;;;;;4995336;28;20057;-60
2021/03/05 04:30:06;;;;;;;16.83;8.90;;;5.00;99.90;;;;;;5012790;28;20029;-60
2021/03/05 04:32:31;;;;;;;16.70;8.80;;;5.00;99.90;;;;;;4995579;28;20037;-61
2021/03/05 04:34:57;;;;;;;19.35;8.43;;;5.10;99.90;;;;;;5012690;28;20030;-61
2021/03/05 04:37:23;;;;;;;15.05;8.10;;;5.20;99.90;;;;;;5012615;28;20164;-60
2021/03/05 04:39:48;;;;;;;16.45;8.50;;;5.10;99.90;;;;;;5012859;28;20038;-60
2021/03/05 04:42:14;;;;;;;18.90;9.57;;;5.20;99.90;;;;;;5012091;28;20030;-61
2021/03/05 04:44:40;;;;;;;18.90;9.15;;;5.10;99.90;;;;;;5012477;28;20030;-61
2021/03/05 04:47:05;;;;;;;19.67;9.27;;;5.10;99.90;;;;;;5012560;28;20117;-59
2021/03/05 04:49:31;;;;;;;18.35;9.18;;;5.10;99.90;;;;;;4997842;28;20084;-59
2021/03/05 04:51:57;;;;;;;19.02;8.75;;;5.00;99.90;;;;;;5011705;28;20422;-60
2021/03/05 04:54:23;;;;;;;17.77;9.15;;;5.00;99.90;;;;;;5011140;28;20029;-60
2021/03/05 04:56:49;;;;;;;17.38;8.65;;;5.00;99.90;;;;;;5006559;28;20582;-60
2021/03/05 04:59:15;;;;;;;19.02;9.27;;;4.90;99.90;;;;;;5012455;28;20125;-59
2021/03/05 05:01:40;;;;;;;21.02;10.15;;;4.90;99.90;;;;;;5001077;28;20030;-59
2021/03/05 05:04:06;;;;;;;21.75;10.25;;;5.00;99.90;;;;;;5011950;28;20037;-59
2021/03/05 05:06:32;;;;;;;19.55;9.45;;;5.00;99.90;;;;;;5011979;28;20030;-60
2021/03/05 05:08:58;;;;;;;19.25;9.93;;;5.00;99.90;;;;;;5012313;28;20065;-60
2021/03/05 05:11:24;;;;;;;18.95;9.75;;;5.00;99.90;;;;;;5011732;28;20466;-59
2021/03/05 05:13:49;;;;;;;20.40;9.95;;;5.00;99.90;;;;;;5012017;28;20029;-59
2021/03/05 05:16:15;;;;;;;20.08;9.48;;;5.10;99.90;;;;;;5012216;28;20380;-58
2021/03/05 05:18:41;;;;;;;19.30;9.32;;;5.00;99.90;;;;;;5011934;28;20030;-59
2021/03/05 05:21:06;;;;;;;24.33;10.65;;;5.10;99.90;;;;;;5012480;28;20037;-61
2021/03/05 05:23:32;;;;;;;22.65;10.27;;;5.10;99.90;;;;;;5012488;28;20064;-62
2021/03/05 05:26:01;;;;;;;19.25;10.05;;;5.10;99.90;;;;;;5031282;28;20037;-61
2021/03/05 05:28:27;;;;;;;20.88;9.82;;;5.20;99.90;;;;;;5031738;28;20045;-62
2021/03/05 05:30:53;;;;;;;18.85;9.45;;;5.30;99.90;;;;;;5014368;28;20048;-62
2021/03/05 05:33:19;;;;;;;25.25;10.52;;;5.20;99.90;;;;;;5031755;28;20079;-61
2021/03/05 05:35:45;;;;;;;20.00;10.57;;;5.20;99.90;;;;;;5031716;28;20037;-63
2021/03/05 05:38:10;;;;;;;22.52;11.00;;;5.20;99.90;;;;;;5032056;28;20030;-63
2021/03/05 05:40:37;;;;;;;22.05;10.82;;;5.10;99.90;;;;;;5031521;28;20555;-62
2021/03/05 05:43:04;;;;;;;21.58;10.00;;;5.20;99.90;;;;;;5014256;28;20057;-64
2021/03/05 05:45:30;;;;;;;20.40;10.02;;;5.30;99.90;;;;;;5014236;28;20037;-65
2021/03/05 05:47:59;;;;;;;19.67;8.43;;;5.30;99.90;;;;;;5013879;28;20034;-61
2021/03/05 05:50:27;;;;;;;20.13;8.80;;;5.30;99.90;;;;;;5013863;28;20394;-63
2021/03/05 05:52:57;;;;;;;19.20;8.30;;;5.20;99.90;;;;;;5031629;28;20059;-62
2021/03/05 05:55:24;;;;;;;18.73;8.75;;;5.10;99.90;;;;;;5004251;28;20427;-61
2021/03/05 05:57:50;;;;;;;19.92;8.32;;;5.10;99.90;;;;;;5002307;28;20120;-63
2021/03/05 06:00:17;;;;;;;16.58;8.20;;;5.10;99.90;;;;;;4997119;28;20070;-62
2021/03/05 06:02:46;;;;;;;17.85;8.00;;;5.00;99.90;;;;;;5015545;28;20042;-62
2021/03/05 06:05:14;;;;;;;19.45;7.85;;;5.00;99.90;;;;;;4998065;28;20030;-61
2021/03/05 06:07:42;;;;;;;19.77;8.15;;;5.10;99.90;;;;;;4981402;28;20510;-61
2021/03/05 06:10:10;;;;;;;17.05;7.43;;;5.10;99.90;;;;;;4997935;28;20034;-62
2021/03/05 06:12:36;;;;;;;16.58;8.00;;;5.20;99.90;;;;;;5013404;28;20030;-62
2021/03/05 06:15:03;;;;;;;15.88;7.85;;;5.10;99.90;;;;;;5012208;28;20037;-61
2021/03/05 06:17:49;;;;;;;16.25;6.88;;;5.10;99.90;;;;;;5014137;28;20045;-62
2021/03/05 06:20:17;;;;;;;15.38;7.00;;;5.10;99.90;;;;;;5014763;28;20034;-62
2021/03/05 06:22:46;;;;;;;15.95;6.97;;;5.20;99.90;;;;;;5004111;28;20072;-62
2021/03/05 06:25:12;;;;;;;16.63;7.88;;;5.10;99.90;;;;;;5027977;28;20088;-61
2021/03/05 06:27:39;;;;;;;13.43;6.00;;;5.20;99.90;;;;;;5034324;28;20065;-61
2021/03/05 06:30:07;;;;;;;13.38;6.32;;;5.20;99.90;;;;;;5034553;28;20030;-62
2021/03/05 06:32:41;;;;;;;12.90;6.47;;;5.20;99.90;;;;;;5003901;28;20034;-62
2021/03/05 06:35:10;;;;;;;14.30;7.75;;;5.10;99.90;;;;;;5014683;28;20026;-61
2021/03/05 06:37:47;;;;;;;13.65;6.13;;;5.10;99.90;;;;;;5014891;28;20030;-62
2021/03/05 06:40:15;;;;;;;15.20;6.55;;;5.00;99.90;;;;;;4997430;28;20026;-62
2021/03/05 06:42:56;;;;;;;14.82;6.40;;;5.00;99.90;;;;;;5015386;28;20030;-61
2021/03/05 06:45:36;;;;;;;12.87;5.83;;;5.10;99.90;;;;;;5014440;28;20030;-61
2021/03/05 06:48:08;;;;;;;13.25;7.15;;;5.00;99.90;;;;;;5014124;28;20387;-62
2021/03/05 06:50:42;;;;;;;12.02;5.13;;;5.10;99.90;;;;;;5014440;28;20519;-60
2021/03/05 06:53:28;;;;;;;17.25;6.32;;;5.20;99.90;;;;;;5013682;28;20105;-62
2021/03/05 06:55:54;;;;;;;16.95;6.50;;;5.20;99.90;;;;;;5032923;28;20047;-62
2021/03/05 06:58:20;;;;;;;12.75;6.32;;;5.20;99.90;;;;;;5015023;28;20033;-63
2021/03/05 07:00:46;;;;;;;12.70;6.00;;;5.20;99.90;;;;;;5032816;28;20044;-62
2021/03/05 07:03:18;;;;;;;12.65;4.97;;;5.30;99.90;;;;;;5033658;28;20029;-62
2021/03/05 07:05:54;;;;;;;11.80;5.45;;;5.20;99.90;;;;;;5015196;28;20034;-62
2021/03/05 07:08:42;;;;;;;14.00;5.75;;;5.20;99.90;;;;;;5012864;28;20470;-62
2021/03/05 07:11:10;;;;;;;13.32;5.15;;;5.30;99.90;;;;;;5033650;28;20055;-63
2021/03/05 07:13:52;;;;;;;12.60;5.97;;;5.30;99.90;;;;;;4987671;28;20116;-62
2021/03/05 07:16:18;;;;;;;;;;;5.30;99.90;;;;;;5014760;28;20634;-61
2021/03/05 07:18:44;;;;;;;14.73;5.35;;;5.20;99.90;;;;;;5014122;28;19913;-63
2021/03/05 07:21:15;;;;;;;12.95;6.13;;;5.10;99.90;;;;;;5013138;28;20029;-62
2021/03/05 07:23:44;;;;;;;14.13;5.90;;;5.30;99.90;;;;;;4979116;28;20457;-62
2021/03/05 07:26:11;;;;;;;13.40;5.78;;;5.30;99.90;;;;;;5033797;28;20095;-62
2021/03/05 07:28:46;;;;;;;13.82;5.15;;;5.30;99.90;;;;;;5015740;28;20042;-61
2021/03/05 07:31:16;;;;;;;12.95;5.38;;;5.30;99.90;;;;;;5033887;28;20547;-62
2021/03/05 07:33:48;;;;;;;14.98;7.35;;;5.30;99.90;;;;;;5033474;28;20039;-61
2021/03/05 07:36:16;;;;;;;12.02;5.75;;;5.20;99.90;;;;;;5012683;28;20045;-62
2021/03/05 07:38:49;;;;;;;10.88;5.43;;;5.20;99.90;;;;;;5012209;28;20061;-61
2021/03/05 07:41:20;;;;;;;11.15;4.85;;;5.30;99.90;;;;;;5010929;28;20387;-62
2021/03/05 07:43:46;;;;;;;13.20;5.60;;;5.40;99.90;;;;;;5013710;28;20045;-63
2021/03/05 07:46:12;;;;;;;16.17;6.32;;;5.50;99.90;;;;;;5013450;28;20034;-63
2021/03/05 07:48:39;;;;;;;13.13;5.00;;;5.40;99.90;;;;;;5007444;28;20040;-62
2021/03/05 07:51:05;;;;;;;13.15;5.55;;;5.40;99.90;;;;;;5013380;28;20104;-61
2021/03/05 07:53:49;;;;;;;16.02;5.43;;;5.40;99.90;;;;;;5013166;28;20490;-62
2021/03/05 07:56:46;;;;;;;11.02;4.78;;;5.40;99.90;;;;;;4976294;28;20034;-62
2021/03/05 07:59:37;;;;;;;13.75;4.93;;;5.20;99.90;;;;;;5001795;28;20451;-61
2021/03/05 08:02:04;;;;;;;10.98;5.38;;;5.30;99.90;;;;;;5012927;28;20092;-64
2021/03/05 08:04:52;;;;;;;16.25;6.05;;;5.30;99.90;;;;;;5012950;28;20037;-61
2021/03/05 08:07:24;;;;;;;10.95;5.03;;;5.30;99.90;;;;;;5013294;28;20040;-60
2021/03/05 08:09:51;;;;;;;12.30;5.18;;;5.30;99.90;;;;;;5011998;28;20030;-61
2021/03/05 08:12:33;;;;;;;11.20;5.03;;;5.30;99.90;;;;;;5002612;28;20495;-61
2021/03/05 08:15:24;;;;;;;18.55;5.97;;;5.40;99.90;;;;;;5012750;28;20029;-61
2021/03/05 08:17:51;;;;;;;17.98;5.57;;;5.50;99.90;;;;;;4988460;28;20054;-61
2021/03/05 08:20:17;;;;;;;16.17;6.00;;;5.50;99.90;;;;;;5012499;28;20176;-62
2021/03/05 08:22:58;;;;;;;16.23;5.18;;;5.50;99.90;;;;;;5012826;28;20041;-62
2021/03/05 08:25:27;;;;;;;11.43;4.78;;;5.50;99.90;;;;;;5027550;28;20619;-61
2021/03/05 08:27:54;;;;;;;14.68;6.00;;;5.50;99.90;;;;;;5032212;28;20085;-60
2021/03/05 08:30:33;;;;;;;15.25;6.05;;;5.50;99.90;;;;;;5017095;28;20117;-60
2021/03/05 08:33:06;;;;;;;15.50;6.60;;;5.50;99.90;;;;;;5011303;28;20041;-61
2021/03/05 08:35:34;;;;;;;14.23;5.78;;;5.50;99.90;;;;;;5012897;28;20117;-60
2021/03/05 08:38:05;;;;;;;16.10;5.95;;;5.50;99.90;;;;;;5012491;28;20038;-62
2021/03/05 08:40:35;;;;;;;15.15;5.45;;;5.60;99.90;;;;;;5012910;28;20037;-62
2021/03/05 08:43:10;;;;;;;16.52;5.97;;;5.60;99.90;;;;;;5012749;28;20025;-61
2021/03/05 08:45:43;;;;;;;14.57;6.00;;;5.60;99.90;;;;;;5012445;28;20042;-60
2021/03/05 08:48:11;;;;;;;15.95;5.68;;;5.80;99.90;;;;;;5011647;28;20384;-61
2021/03/05 08:50:38;;;;;;;14.93;6.43;;;6.00;99.90;;;;;;5012364;28;20038;-61
2021/03/05 08:53:13;;;;;;;15.95;6.65;;;6.00;99.90;;;;;;4999482;28;20041;-62
2021/03/05 08:55:41;;;;;;;14.65;5.80;;;6.00;99.90;;;;;;5029289;28;20041;-61
2021/03/05 08:58:07;;;;;;;21.45;7.18;;;6.00;99.90;;;;;;5032347;28;20026;-61
2021/03/05 09:00:36;;;;;;;16.63;6.07;;;6.10;99.90;;;;;;5014423;28;20049;-61
2021/03/05 09:03:07;;;;;;;16.20;6.38;;;6.40;99.90;;;;;;5014915;28;20520;-62
2021/03/05 09:05:37;;;;;;;21.60;6.97;;;6.30;99.90;;;;;;5032023;28;20106;-61
2021/03/05 09:08:05;;;;;;;18.67;7.22;;;6.40;99.90;;;;;;5015108;28;20060;-60
2021/03/05 09:10:48;;;;;;;14.98;5.97;;;6.50;99.90;;;;;;5032090;28;20474;-61
2021/03/05 09:13:21;;;;;;;19.15;6.40;;;6.50;99.90;;;;;;5017623;28;20041;-61
2021/03/05 09:15:56;;;;;;;14.82;6.78;;;6.70;99.90;;;;;;5012262;28;20022;-61
2021/03/05 09:18:28;;;;;;;15.73;6.47;;;6.60;99.90;;;;;;4994917;28;20156;-61
2021/03/05 09:21:02;;;;;;;15.05;6.03;;;6.50;99.90;;;;;;5012060;28;20076;-61
2021/03/05 09:23:43;;;;;;;16.42;6.45;;;6.30;99.90;;;;;;4995069;28;20038;-61
2021/03/05 09:26:15;;;;;;;16.27;6.75;;;6.20;99.90;;;;;;4992356;28;20042;-61
2021/03/05 09:28:56;;;;;;;14.57;6.32;;;6.20;99.90;;;;;;4993931;28;20100;-61
2021/03/05 09:31:26;;;;;;;16.25;7.00;;;6.30;99.90;;;;;;4978896;28;20046;-60
2021/03/05 09:33:52;;;;;;;16.90;7.00;;;6.30;99.90;;;;;;4996033;28;20618;-62
2021/03/05 09:36:21;;;;;;;13.18;5.68;;;6.20;99.90;;;;;;4979355;28;20108;-61
2021/03/05 09:39:03;;;;;;;20.23;6.88;;;6.40;99.90;;;;;;4979431;28;20034;-61
2021/03/05 09:41:31;;;;;;;17.40;6.28;;;6.60;99.90;;;;;;4996360;28;20035;-61
2021/03/05 09:44:07;;;;;;;15.65;6.40;;;6.50;99.90;;;;;;4996028;28;20049;-61
2021/03/05 09:46:39;;;;;;;13.93;6.63;;;6.50;99.90;;;;;;4996484;28;20507;-62
2021/03/05 09:49:23;;;;;;;18.63;6.55;;;6.40;99.90;;;;;;5013648;28;20437;-62
2021/03/05 09:51:49;;;;;;;14.57;7.25;;;6.40;99.90;;;;;;4998360;28;20030;-63
2021/03/05 09:54:17;;;;;;;16.23;6.85;;;6.40;99.90;;;;;;4971321;28;20037;-62
2021/03/05 09:56:45;;;;;;;13.45;5.80;;;6.40;99.90;;;;;;5014483;28;20026;-62
2021/03/05 09:59:11;;;;;;;20.52;7.68;;;6.30;99.90;;;;;;5014900;28;20072;-61
2021/03/05 10:01:43;;;;;;;18.55;6.93;;;6.60;99.90;;;;;;5014760;28;20045;-62
2021/03/05 10:04:11;;;;;;;17.10;6.90;;;6.70;99.90;;;;;;5013650;28;20044;-62
2021/03/05 10:06:38;;;;;;;20.80;6.55;;;6.90;99.90;;;;;;5013613;28;20041;-62
2021/03/05 10:09:10;;;;;;;12.93;5.78;;;6.90;99.90;;;;;;5015196;28;20670;-62
2021/03/05 10:11:44;;;;;;;13.55;6.18;;;7.00;99.90;;;;;;5014560;28;20080;-62
2021/03/05 10:14:31;;;;;;;17.05;5.88;;;6.90;99.90;;;;;;5013505;28;20497;-62
2021/03/05 10:17:08;;;;;;;14.20;6.30;;;7.10;99.90;;;;;;5013813;28;20037;-61
2021/03/05 10:19:41;;;;;;;11.70;5.53;;;7.20;99.90;;;;;;5013718;28;20038;-62
2021/03/05 10:22:08;;;;;;;10.43;4.82;;;7.30;99.90;;;;;;5013836;28;20034;-62
2021/03/05 10:24:35;;;;;;;12.70;5.50;;;7.00;99.90;;;;;;5023307;28;20029;-61
2021/03/05 10:27:14;;;;;;;14.73;6.40;;;7.00;99.90;;;;;;5034175;28;20049;-60
2021/03/05 10:29:58;;;;;;;12.88;6.35;;;7.00;99.90;;;;;;5016949;28;20053;-62
2021/03/05 10:32:36;;;;;;;11.75;5.78;;;7.20;99.90;;;;;;5016999;28;20387;-62
2021/03/05 10:35:11;;;;;;;11.05;5.78;;;7.20;99.90;;;;;;5034419;28;20112;-62
2021/03/05 10:37:39;;;;;;;13.52;6.00;;;7.20;99.90;;;;;;5035003;28;20057;-62
2021/03/05 10:40:09;;;;;;;13.32;5.70;;;7.40;99.90;;;;;;5033865;28;20117;-61
2021/03/05 10:42:35;;;;;;;12.60;6.38;;;7.30;99.90;;;;;;5034547;28;20037;-61
2021/03/05 10:45:02;;;;;;;11.07;5.53;;;7.40;99.90;;;;;;5034383;28;20174;-61
2021/03/05 10:47:29;;;;;;;16.10;7.18;;;7.50;99.90;;;;;;5034461;28;20029;-62
2021/03/05 10:49:54;;;;;;;13.32;6.53;;;7.50;99.90;;;;;;5034245;28;20079;-61
2021/03/05 10:52:22;;;;;;;15.32;6.82;;;7.40;99.90;;;;;;5034766;28;20115;-61
2021/03/05 10:54:48;;;;;;;13.95;6.85;;;7.40;99.90;;;;;;5006128;28;20030;-56
2021/03/05 10:57:17;;;;;;;12.98;5.90;;;7.20;99.90;;;;;;5012802;28;20033;-66
2021/03/05 10:59:44;;;;;;;13.77;6.93;;;7.40;99.90;;;;;;5004638;28;20386;-61
2021/03/05 11:02:11;;;;;;;12.60;6.30;;;7.60;99.90;;;;;;5014316;28;20037;-61
2021/03/05 11:04:37;;;;;;;18.90;7.55;;;7.40;99.90;;;;;;5013393;28;20054;-61
2021/03/05 11:07:04;;;;;;;15.18;7.07;;;7.20;99.90;;;;;;5013719;28;20491;-60
2021/03/05 11:09:30;;;;;;;10.30;5.70;;;7.00;99.90;;;;;;5013983;28;20030;-61
2021/03/05 11:11:58;;;;;;;11.68;5.82;;;7.00;99.90;;;;;;5011710;28;20054;-61
2021/03/05 11:14:27;;;;;;;12.65;5.70;;;7.20;99.90;;;;;;4996638;28;20040;-61
2021/03/05 11:16:53;;;;;;;13.93;6.40;;;7.50;99.90;;;;;;5013561;28;20084;-62
2021/03/05 11:19:23;;;;;;;11.15;5.35;;;7.50;99.90;;;;;;4998586;28;20042;-61
2021/03/05 11:21:49;;;;;;;13.23;6.55;;;7.30;99.90;;;;;;5001834;28;20125;-64
2021/03/05 11:24:15;;;;;;;15.55;6.03;;;7.40;99.90;;;;;;4999604;28;20052;-64
2021/03/05 11:26:42;;;;;;;11.05;5.15;;;7.80;99.90;;;;;;5033377;28;20486;-62
2021/03/05 11:29:08;;;;;;;10.20;5.22;;;7.90;99.90;;;;;;5033835;28;20026;-63
2021/03/05 11:31:35;;;;;;;11.90;5.40;;;8.20;99.90;;;;;;5016046;28;20048;-64
2021/03/05 11:34:01;;;;;;;11.20;5.45;;;8.30;99.90;;;;;;4982943;28;20490;-64
2021/03/05 11:36:26;;;;;;;12.63;5.20;;;8.20;99.90;;;;;;5012243;28;20049;-64
2021/03/05 11:38:53;;;;;;;12.25;5.35;;;7.90;99.90;;;;;;5012478;28;20053;-63
2021/03/05 11:41:20;;;;;;;11.55;5.57;;;7.40;99.90;;;;;;5011563;28;20084;-63
2021/03/05 11:43:52;;;;;;;12.60;6.05;;;7.50;99.90;;;;;;5013632;28;20062;-63
2021/03/05 11:46:21;;;;;;;10.43;5.07;;;7.50;99.90;;;;;;5013504;28;20065;-64
2021/03/05 11:48:47;;;;;;;9.77;5.65;;;7.90;99.90;;;;;;5013099;28;20026;-62
2021/03/05 11:51:15;;;;;;;11.63;5.55;;;7.70;99.90;;;;;;5012784;28;20045;-63
2021/03/05 11:53:41;;;;;;;9.48;4.90;;;7.50;99.90;;;;;;5012675;28;20033;-64
2021/03/05 11:56:08;;;;;;;12.55;5.43;;;7.70;99.90;;;;;;5012982;28;20037;-64
2021/03/05 11:58:35;;;;;;;13.30;5.55;;;7.60;99.90;;;;;;5013390;28;20041;-64
2021/03/05 12:01:01;;;;;;;12.80;5.50;;;7.40;99.90;;;;;;5013209;28;20036;-63
2021/03/05 12:03:27;;;;;;;9.48;5.15;;;7.40;99.90;;;;;;5013435;28;20030;-63
2021/03/05 12:05:53;;;;;;;8.93;4.47;;;7.50;99.90;;;;;;5013061;28;20107;-64
2021/03/05 12:08:19;;;;;;;9.63;4.38;;;7.70;99.90;;;;;;5013373;28;20422;-63
2021/03/05 12:10:45;;;;;;;10.02;4.45;;;7.90;99.90;;;;;;5012878;28;20034;-63
2021/03/05 12:13:11;;;;;;;7.20;4.00;;;7.60;99.90;;;;;;5013089;28;20448;-63
2021/03/05 12:15:38;;;;;;;9.68;4.45;;;8.00;99.90;;;;;;5012970;28;20394;-63
2021/03/05 12:18:06;;;;;;;8.52;4.65;;;7.80;99.90;;;;;;5012752;28;20041;-63
2021/03/05 12:20:32;;;;;;;10.35;5.07;;;8.00;99.90;;;;;;4995703;28;20048;-63
2021/03/05 12:22:58;;;;;;;11.27;4.57;;;7.90;99.90;;;;;;4995369;28;20034;-63
2021/03/05 12:25:24;;;;;;;8.90;5.10;;;8.10;99.90;;;;;;5012316;28;20088;-63
2021/03/05 12:27:50;;;;;;;8.32;4.45;;;8.20;99.90;;;;;;5012407;28;20053;-63
2021/03/05 12:30:16;;;;;;;8.98;4.65;;;8.00;99.90;;;;;;5011835;28;20442;-63
2021/03/05 12:32:45;;;;;;;11.35;4.90;;;8.10;99.90;;;;;;5012955;28;20481;-65
2021/03/05 12:35:13;;;;;;;10.80;4.72;;;8.00;99.90;;;;;;5012541;28;20030;-63
2021/03/05 12:37:39;;;;;;;7.40;4.15;;;8.10;99.90;;;;;;5011469;28;20029;-63
2021/03/05 12:40:07;;;;;;;10.07;4.65;;;8.20;99.90;;;;;;5011027;28;20034;-63
2021/03/05 12:42:34;;;;;;;10.18;5.00;;;8.30;99.90;;;;;;5012797;28;20091;-64
2021/03/05 12:45:05;;;;;;;7.88;4.20;;;8.40;99.90;;;;;;5012599;28;20029;-63
2021/03/05 12:47:32;;;;;;;9.00;4.38;;;8.50;99.90;;;;;;5012284;28;20117;-65
2021/03/05 12:49:58;;;;;;;7.63;4.10;;;8.50;99.90;;;;;;5012678;28;20107;-63
2021/03/05 12:52:24;;;;;;;7.85;4.10;;;8.30;99.90;;;;;;5012530;28;20026;-63
2021/03/05 12:54:50;;;;;;;8.68;3.80;;;8.30;99.90;;;;;;5022858;28;20128;-63
2021/03/05 12:57:16;;;;;;;8.75;4.05;;;8.40;99.90;;;;;;5008760;28;20100;-64
2021/03/05 12:59:43;;;;;;;7.95;3.72;;;8.50;99.90;;;;;;5012568;28;20022;-64
2021/03/05 13:02:09;;;;;;;9.05;4.13;;;8.50;99.80;;;;;;5012185;28;20038;-63